To NAV CANADA Home Page Login to a new session Search on AWWS site Feedback and Comments Disclaimer Vers la page française équivalente Tips FAQ What's new on the site To the Forecasts and Observations / NOTAM section To "File a Flight Plan" website Publications and other links Update of the User's profile FIC Telephone Numbers My Weather Data Folder Route Weather Data Regional Weather Data Local Weather Data To the Forecasts and Observations / NOTAM section
Request Generated 01/21/2017 at 02:05:09 UTC . Weather information available at that time is displayed.

METAR/TAF

TORONTO/BUTTONVILLE MUNICIPAL/ON    

METAR CYKZ 210200Z CCA 10005KT 2 1/4SM -DZ BR FEW002 OVC003 03/02
A2974 RMK SF1ST8 SF TR SLP079=
METAR CYKZ 210200Z 10005KT 2 1/4SM -DZ BR OVC003 03/02 A2974 RMK ST8
SLP079=
SPECI CYKZ 210143Z 10005KT 2 1/4SM -DZ BR OVC003 03/02 A2974 RMK ST8
SLP080=
SPECI CYKZ 210140Z 11005KT 2SM -DZ BR OVC003 03/02 A2974 RMK FG1ST7
SLP080=
METAR CYKZ 210100Z 08004KT 1 3/4SM -DZ BR FEW002 BKN003 OVC006 02/02
A2974 RMK SF1ST7SC1 SF TR SLP080=
SPECI CYKZ 210027Z 11005KT 2SM -DZ BR BKN005 OVC008 03/02 A2975 RMK
ST7SC1 SLP082=
SPECI CYKZ 210022Z 10005KT 2 1/2SM -DZ BR BKN005 OVC008 03/02 A2975
RMK ST7SC1 SLP082=
METAR CYKZ 210000Z 10004KT 8SM BKN006 OVC014 03/02 A2974 RMK SC6SC2
SLP080=

TAF AMD CYKZ 210114Z 2101/2112 08004KT 13/4SM -RA -DZ BR BKN003 TEMPO
2101/2104 P6SM NSW OVC015 PROB30 2101/2104 3/8SM FG VV002
FM210400 22008KT 11/2SM -DZ BR OVC005 TEMPO 2104/2112 21/2SM BR
OVC008
RMK NXT FCST BY 210600Z=
Your time UTC time
Weather data provided by Environment Canada and NAV CANADA